sensor_id;sensor_type;location;lat;lon;timestamp;temperature;humidity
39621;DHT22;25309;48.686;9.170;2023-06-22T00:00:15;22.50;99.90
39621;DHT22;25309;48.686;9.170;2023-06-22T00:02:42;22.40;99.90
39621;DHT22;25309;48.686;9.170;2023-06-22T00:05:09;22.40;99.90
39621;DHT22;25309;48.686;9.170;2023-06-22T00:07:37;22.40;99.90
39621;DHT22;25309;48.686;9.170;2023-06-22T00:10:05;22.30;99.90
39621;DHT22;25309;48.686;9.170;2023-06-22T00:12:32;22.30;99.90
39621;DHT22;25309;48.686;9.170;2023-06-22T00:14:59;22.30;99.90
39621;DHT22;25309;48.686;9.170;2023-06-22T00:17:26;22.40;99.90
39621;DHT22;25309;48.686;9.170;2023-06-22T00:19:53;22.40;99.90
39621;DHT22;25309;48.686;9.170;2023-06-22T00:22:23;22.50;99.90
39621;DHT22;25309;48.686;9.170;2023-06-22T00:24:57;22.50;99.90
39621;DHT22;25309;48.686;9.170;2023-06-22T00:27:24;22.50;99.90
39621;DHT22;25309;48.686;9.170;2023-06-22T00:29:51;22.50;99.90
39621;DHT22;25309;48.686;9.170;2023-06-22T00:32:18;22.40;99.90
39621;DHT22;25309;48.686;9.170;2023-06-22T00:34:47;22.20;99.90
39621;DHT22;25309;48.686;9.170;2023-06-22T00:37:14;22.10;99.90
39621;DHT22;25309;48.686;9.170;2023-06-22T00:39:41;22.10;99.90
39621;DHT22;25309;48.686;9.170;2023-06-22T00:42:09;22.10;99.90
39621;DHT22;25309;48.686;9.170;2023-06-22T00:44:36;22.10;99.90
39621;DHT22;25309;48.686;9.170;2023-06-22T00:47:04;22.00;99.90
39621;DHT22;25309;48.686;9.170;2023-06-22T00:49:31;22.00;99.90
39621;DHT22;25309;48.686;9.170;2023-06-22T00:51:58;22.00;99.90
39621;DHT22;25309;48.686;9.170;2023-06-22T00:54:26;22.00;99.90
39621;DHT22;25309;48.686;9.170;2023-06-22T00:56:55;21.90;99.90
39621;DHT22;25309;48.686;9.170;2023-06-22T00:59:25;21.90;99.90
39621;DHT22;25309;48.686;9.170;2023-06-22T01:01:53;21.80;99.90
39621;DHT22;25309;48.686;9.170;2023-06-22T01:04:20;21.80;99.90
39621;DHT22;25309;48.686;9.170;2023-06-22T01:07:10;21.70;99.90
39621;DHT22;25309;48.686;9.170;2023-06-22T01:09:46;21.70;99.90
39621;DHT22;25309;48.686;9.170;2023-06-22T01:12:16;21.60;99.90
39621;DHT22;25309;48.686;9.170;2023-06-22T01:14:54;21.50;99.90
39621;DHT22;25309;48.686;9.170;2023-06-22T01:17:23;21.50;99.90
39621;DHT22;25309;48.686;9.170;2023-06-22T01:19:54;21.50;99.90
39621;DHT22;25309;48.686;9.170;2023-06-22T01:22:24;21.50;99.90
39621;DHT22;25309;48.686;9.170;2023-06-22T01:25:00;21.40;99.90
39621;DHT22;25309;48.686;9.170;2023-06-22T01:27:40;21.40;99.90
39621;DHT22;25309;48.686;9.170;2023-06-22T01:30:14;21.40;99.90
39621;DHT22;25309;48.686;9.170;2023-06-22T01:32:43;21.50;99.90
39621;DHT22;25309;48.686;9.170;2023-06-22T01:35:11;21.50;99.90
39621;DHT22;25309;48.686;9.170;2023-06-22T01:37:39;21.50;99.90
39621;DHT22;25309;48.686;9.170;2023-06-22T01:40:08;21.50;99.90
39621;DHT22;25309;48.686;9.170;2023-06-22T01:42:36;21.50;99.90
39621;DHT22;25309;48.686;9.170;2023-06-22T01:45:05;21.50;99.90
39621;DHT22;25309;48.686;9.170;2023-06-22T01:47:34;21.50;99.90
39621;DHT22;25309;48.686;9.170;2023-06-22T01:50:02;21.50;99.90
39621;DHT22;25309;48.686;9.170;2023-06-22T01:52:29;21.50;99.90
39621;DHT22;25309;48.686;9.170;2023-06-22T01:54:56;21.50;99.90
39621;DHT22;25309;48.686;9.170;2023-06-22T01:57:24;21.50;99.90
39621;DHT22;25309;48.686;9.170;2023-06-22T01:59:57;21.50;99.90
39621;DHT22;25309;48.686;9.170;2023-06-22T02:02:29;21.40;99.90
39621;DHT22;25309;48.686;9.170;2023-06-22T02:05:06;21.50;99.90
39621;DHT22;25309;48.686;9.170;2023-06-22T02:07:38;21.50;99.90
39621;DHT22;25309;48.686;9.170;2023-06-22T02:10:07;21.50;99.90
39621;DHT22;25309;48.686;9.170;2023-06-22T02:12:36;21.50;99.90
39621;DHT22;25309;48.686;9.170;2023-06-22T02:15:04;21.40;99.90
39621;DHT22;25309;48.686;9.170;2023-06-22T02:17:33;21.40;99.90
39621;DHT22;25309;48.686;9.170;2023-06-22T02:20:03;21.40;99.90
39621;DHT22;25309;48.686;9.170;2023-06-22T02:22:35;21.50;99.90
39621;DHT22;25309;48.686;9.170;2023-06-22T02:25:02;21.50;99.90
39621;DHT22;25309;48.686;9.170;2023-06-22T02:27:29;21.40;99.90
39621;DHT22;25309;48.686;9.170;2023-06-22T02:29:56;21.40;99.90
39621;DHT22;25309;48.686;9.170;2023-06-22T02:32:23;21.40;99.90
39621;DHT22;25309;48.686;9.170;2023-06-22T02:34:50;21.40;99.90
39621;DHT22;25309;48.686;9.170;2023-06-22T02:37:19;21.30;99.90
39621;DHT22;25309;48.686;9.170;2023-06-22T02:39:46;21.30;99.90
39621;DHT22;25309;48.686;9.170;2023-06-22T02:42:13;21.20;99.90
39621;DHT22;25309;48.686;9.170;2023-06-22T02:44:41;21.10;99.90
39621;DHT22;25309;48.686;9.170;2023-06-22T02:47:08;21.10;99.90
39621;DHT22;25309;48.686;9.170;2023-06-22T02:49:36;21.10;99.90
39621;DHT22;25309;48.686;9.170;2023-06-22T02:52:04;21.10;99.90
39621;DHT22;25309;48.686;9.170;2023-06-22T02:54:32;21.10;99.90
39621;DHT22;25309;48.686;9.170;2023-06-22T02:57:00;21.10;99.90
39621;DHT22;25309;48.686;9.170;2023-06-22T02:59:30;21.10;99.90
39621;DHT22;25309;48.686;9.170;2023-06-22T03:02:07;21.10;99.90
39621;DHT22;25309;48.686;9.170;2023-06-22T03:04:34;21.10;99.90
39621;DHT22;25309;48.686;9.170;2023-06-22T03:07:01;21.10;99.90
39621;DHT22;25309;48.686;9.170;2023-06-22T03:09:32;21.20;99.90
39621;DHT22;25309;48.686;9.170;2023-06-22T03:11:59;21.20;99.90
39621;DHT22;25309;48.686;9.170;2023-06-22T03:14:34;21.20;99.90
39621;DHT22;25309;48.686;9.170;2023-06-22T03:17:02;21.20;99.90
39621;DHT22;25309;48.686;9.170;2023-06-22T03:19:30;21.10;99.90
39621;DHT22;25309;48.686;9.170;2023-06-22T03:21:59;21.10;99.90
39621;DHT22;25309;48.686;9.170;2023-06-22T03:24:26;21.10;99.90
39621;DHT22;25309;48.686;9.170;2023-06-22T03:26:56;21.00;99.90
39621;DHT22;25309;48.686;9.170;2023-06-22T03:29:24;21.00;99.90
39621;DHT22;25309;48.686;9.170;2023-06-22T03:31:55;20.90;99.90
39621;DHT22;25309;48.686;9.170;2023-06-22T03:34:22;20.90;99.90
39621;DHT22;25309;48.686;9.170;2023-06-22T03:36:52;20.80;99.90
39621;DHT22;25309;48.686;9.170;2023-06-22T03:39:19;20.80;99.90
39621;DHT22;25309;48.686;9.170;2023-06-22T03:41:47;20.80;99.90
39621;DHT22;25309;48.686;9.170;2023-06-22T03:44:15;20.80;99.90
39621;DHT22;25309;48.686;9.170;2023-06-22T03:46:42;20.80;99.90
39621;DHT22;25309;48.686;9.170;2023-06-22T03:49:09;20.80;99.90
39621;DHT22;25309;48.686;9.170;2023-06-22T03:51:36;20.80;99.90
39621;DHT22;25309;48.686;9.170;2023-06-22T03:54:03;20.90;99.90
39621;DHT22;25309;48.686;9.170;2023-06-22T03:56:30;20.90;99.90
39621;DHT22;25309;48.686;9.170;2023-06-22T03:58:58;20.90;99.90
39621;DHT22;25309;48.686;9.170;2023-06-22T04:01:26;20.90;99.90
39621;DHT22;25309;48.686;9.170;2023-06-22T04:03:53;20.90;99.90
39621;DHT22;25309;48.686;9.170;2023-06-22T04:06:20;20.90;99.90
39621;DHT22;25309;48.686;9.170;2023-06-22T04:08:47;21.00;99.90
39621;DHT22;25309;48.686;9.170;2023-06-22T04:11:18;21.00;99.90
39621;DHT22;25309;48.686;9.170;2023-06-22T04:13:45;21.10;99.90
39621;DHT22;25309;48.686;9.170;2023-06-22T04:16:12;21.10;99.90
39621;DHT22;25309;48.686;9.170;2023-06-22T04:18:40;21.10;99.90
39621;DHT22;25309;48.686;9.170;2023-06-22T04:21:09;21.10;99.90
39621;DHT22;25309;48.686;9.170;2023-06-22T04:23:36;21.20;99.90
39621;DHT22;25309;48.686;9.170;2023-06-22T04:26:03;21.30;99.90
39621;DHT22;25309;48.686;9.170;2023-06-22T04:28:30;21.30;99.90
39621;DHT22;25309;48.686;9.170;2023-06-22T04:31:01;21.30;99.90
39621;DHT22;25309;48.686;9.170;2023-06-22T04:33:29;21.30;99.90
39621;DHT22;25309;48.686;9.170;2023-06-22T04:36:00;21.40;99.90
39621;DHT22;25309;48.686;9.170;2023-06-22T04:38:27;21.40;99.90
39621;DHT22;25309;48.686;9.170;2023-06-22T04:40:54;21.50;99.90
39621;DHT22;25309;48.686;9.170;2023-06-22T04:43:21;21.60;99.90
39621;DHT22;25309;48.686;9.170;2023-06-22T04:45:48;21.60;99.90
39621;DHT22;25309;48.686;9.170;2023-06-22T04:48:19;21.70;99.90
39621;DHT22;25309;48.686;9.170;2023-06-22T04:50:46;21.70;99.90
39621;DHT22;25309;48.686;9.170;2023-06-22T04:53:14;21.70;99.90
39621;DHT22;25309;48.686;9.170;2023-06-22T04:55:41;21.70;99.90
39621;DHT22;25309;48.686;9.170;2023-06-22T04:58:08;21.70;99.90
39621;DHT22;25309;48.686;9.170;2023-06-22T05:00:35;21.80;99.90
39621;DHT22;25309;48.686;9.170;2023-06-22T05:03:05;21.90;99.90
39621;DHT22;25309;48.686;9.170;2023-06-22T05:05:45;21.90;99.90
39621;DHT22;25309;48.686;9.170;2023-06-22T05:08:14;22.00;99.90
39621;DHT22;25309;48.686;9.170;2023-06-22T05:10:41;22.00;99.90
39621;DHT22;25309;48.686;9.170;2023-06-22T05:13:27;22.00;99.90
39621;DHT22;25309;48.686;9.170;2023-06-22T05:15:54;22.10;99.90
39621;DHT22;25309;48.686;9.170;2023-06-22T05:18:29;22.10;99.90
39621;DHT22;25309;48.686;9.170;2023-06-22T05:20:58;22.20;99.90
39621;DHT22;25309;48.686;9.170;2023-06-22T05:23:26;22.30;99.90
39621;DHT22;25309;48.686;9.170;2023-06-22T05:25:53;22.30;99.90
39621;DHT22;25309;48.686;9.170;2023-06-22T05:28:21;22.40;99.90
39621;DHT22;25309;48.686;9.170;2023-06-22T05:30:50;22.40;99.90
39621;DHT22;25309;48.686;9.170;2023-06-22T05:33:17;22.40;99.90
39621;DHT22;25309;48.686;9.170;2023-06-22T05:35:44;22.50;99.90
39621;DHT22;25309;48.686;9.170;2023-06-22T05:38:11;22.50;99.90
39621;DHT22;25309;48.686;9.170;2023-06-22T05:40:39;22.60;99.90
39621;DHT22;25309;48.686;9.170;2023-06-22T05:43:06;22.60;99.90
39621;DHT22;25309;48.686;9.170;2023-06-22T05:45:33;22.70;99.90
39621;DHT22;25309;48.686;9.170;2023-06-22T05:48:00;22.70;99.90
39621;DHT22;25309;48.686;9.170;2023-06-22T05:50:28;22.70;99.90
39621;DHT22;25309;48.686;9.170;2023-06-22T05:52:55;22.80;99.90
39621;DHT22;25309;48.686;9.170;2023-06-22T05:55:22;22.80;99.90
39621;DHT22;25309;48.686;9.170;2023-06-22T05:57:51;22.90;99.90
39621;DHT22;25309;48.686;9.170;2023-06-22T06:00:18;23.00;99.90
39621;DHT22;25309;48.686;9.170;2023-06-22T06:02:46;23.00;99.90
39621;DHT22;25309;48.686;9.170;2023-06-22T06:05:13;23.00;99.90
39621;DHT22;25309;48.686;9.170;2023-06-22T06:07:43;23.10;99.90
39621;DHT22;25309;48.686;9.170;2023-06-22T06:10:10;23.20;99.90
39621;DHT22;25309;48.686;9.170;2023-06-22T06:12:37;23.30;99.90
39621;DHT22;25309;48.686;9.170;2023-06-22T06:15:06;23.30;99.90
39621;DHT22;25309;48.686;9.170;2023-06-22T06:17:45;23.30;99.90
39621;DHT22;25309;48.686;9.170;2023-06-22T06:20:12;23.40;99.90
39621;DHT22;25309;48.686;9.170;2023-06-22T06:22:39;23.50;99.90
39621;DHT22;25309;48.686;9.170;2023-06-22T06:25:07;23.50;99.90
39621;DHT22;25309;48.686;9.170;2023-06-22T06:27:34;23.50;99.90
39621;DHT22;25309;48.686;9.170;2023-06-22T06:30:01;23.50;99.90
39621;DHT22;25309;48.686;9.170;2023-06-22T06:32:30;23.50;99.90
39621;DHT22;25309;48.686;9.170;2023-06-22T06:34:57;23.50;99.90
39621;DHT22;25309;48.686;9.170;2023-06-22T06:37:23;23.50;99.90
39621;DHT22;25309;48.686;9.170;2023-06-22T06:39:50;23.50;99.90
39621;DHT22;25309;48.686;9.170;2023-06-22T06:42:17;23.50;99.90
39621;DHT22;25309;48.686;9.170;2023-06-22T06:44:46;23.50;99.90
39621;DHT22;25309;48.686;9.170;2023-06-22T06:47:13;23.50;99.90
39621;DHT22;25309;48.686;9.170;2023-06-22T06:49:41;23.50;99.90
39621;DHT22;25309;48.686;9.170;2023-06-22T06:52:08;23.60;99.90
39621;DHT22;25309;48.686;9.170;2023-06-22T06:54:35;23.70;99.90
39621;DHT22;25309;48.686;9.170;2023-06-22T06:57:03;23.80;99.90
39621;DHT22;25309;48.686;9.170;2023-06-22T06:59:30;23.90;99.90
39621;DHT22;25309;48.686;9.170;2023-06-22T07:01:57;24.00;99.90
39621;DHT22;25309;48.686;9.170;2023-06-22T07:04:24;24.10;99.90
39621;DHT22;25309;48.686;9.170;2023-06-22T07:06:52;24.10;99.90
39621;DHT22;25309;48.686;9.170;2023-06-22T07:09:19;24.20;99.90
39621;DHT22;25309;48.686;9.170;2023-06-22T07:11:46;24.30;99.90
39621;DHT22;25309;48.686;9.170;2023-06-22T07:14:13;24.30;99.90
39621;DHT22;25309;48.686;9.170;2023-06-22T07:16:40;24.50;99.90
39621;DHT22;25309;48.686;9.170;2023-06-22T07:19:07;24.50;99.90
39621;DHT22;25309;48.686;9.170;2023-06-22T07:21:36;24.50;99.90
39621;DHT22;25309;48.686;9.170;2023-06-22T07:24:05;24.60;99.90
39621;DHT22;25309;48.686;9.170;2023-06-22T07:26:32;24.60;99.90
39621;DHT22;25309;48.686;9.170;2023-06-22T07:29:00;24.70;99.90
39621;DHT22;25309;48.686;9.170;2023-06-22T07:31:27;24.80;99.90
39621;DHT22;25309;48.686;9.170;2023-06-22T07:33:54;24.90;99.90
39621;DHT22;25309;48.686;9.170;2023-06-22T07:36:21;25.00;99.90
39621;DHT22;25309;48.686;9.170;2023-06-22T07:38:48;25.00;99.90
39621;DHT22;25309;48.686;9.170;2023-06-22T07:41:16;25.10;99.90
39621;DHT22;25309;48.686;9.170;2023-06-22T07:43:43;25.10;99.90
39621;DHT22;25309;48.686;9.170;2023-06-22T07:46:10;25.10;99.90
39621;DHT22;25309;48.686;9.170;2023-06-22T07:48:37;25.20;99.90
39621;DHT22;25309;48.686;9.170;2023-06-22T07:51:04;25.40;99.90
39621;DHT22;25309;48.686;9.170;2023-06-22T07:53:32;25.50;99.90
39621;DHT22;25309;48.686;9.170;2023-06-22T07:55:59;25.70;99.90
39621;DHT22;25309;48.686;9.170;2023-06-22T07:58:27;25.80;99.90
39621;DHT22;25309;48.686;9.170;2023-06-22T08:00:54;25.90;99.90
39621;DHT22;25309;48.686;9.170;2023-06-22T08:03:21;26.00;99.90
39621;DHT22;25309;48.686;9.170;2023-06-22T08:05:48;26.10;99.90
39621;DHT22;25309;48.686;9.170;2023-06-22T08:08:15;26.00;99.90
39621;DHT22;25309;48.686;9.170;2023-06-22T08:10:43;26.10;99.90
39621;DHT22;25309;48.686;9.170;2023-06-22T08:13:10;26.30;99.90
39621;DHT22;25309;48.686;9.170;2023-06-22T08:15:39;26.50;99.90
39621;DHT22;25309;48.686;9.170;2023-06-22T08:18:06;26.70;99.90
39621;DHT22;25309;48.686;9.170;2023-06-22T08:20:33;27.00;99.90
39621;DHT22;25309;48.686;9.170;2023-06-22T08:23:00;27.10;99.90
39621;DHT22;25309;48.686;9.170;2023-06-22T08:25:32;27.10;99.90
39621;DHT22;25309;48.686;9.170;2023-06-22T08:27:59;27.00;99.90
39621;DHT22;25309;48.686;9.170;2023-06-22T08:30:26;27.00;99.90
39621;DHT22;25309;48.686;9.170;2023-06-22T08:32:55;27.10;99.90
39621;DHT22;25309;48.686;9.170;2023-06-22T08:35:22;27.30;99.90
39621;DHT22;25309;48.686;9.170;2023-06-22T08:37:49;27.40;99.90
39621;DHT22;25309;48.686;9.170;2023-06-22T08:40:21;27.50;99.90
39621;DHT22;25309;48.686;9.170;2023-06-22T08:42:48;27.60;99.90
39621;DHT22;25309;48.686;9.170;2023-06-22T08:45:16;27.40;99.90
39621;DHT22;25309;48.686;9.170;2023-06-22T08:47:43;27.30;99.90
39621;DHT22;25309;48.686;9.170;2023-06-22T08:50:12;27.30;99.90
39621;DHT22;25309;48.686;9.170;2023-06-22T08:52:40;27.40;99.90
39621;DHT22;25309;48.686;9.170;2023-06-22T08:55:10;27.60;99.90
39621;DHT22;25309;48.686;9.170;2023-06-22T08:57:37;27.70;99.90
39621;DHT22;25309;48.686;9.170;2023-06-22T09:00:07;27.80;99.90
39621;DHT22;25309;48.686;9.170;2023-06-22T09:02:43;28.00;99.90
39621;DHT22;25309;48.686;9.170;2023-06-22T09:05:12;28.00;99.90
39621;DHT22;25309;48.686;9.170;2023-06-22T09:07:39;28.10;99.90
39621;DHT22;25309;48.686;9.170;2023-06-22T09:10:07;28.10;99.90
39621;DHT22;25309;48.686;9.170;2023-06-22T09:12:34;28.20;99.90
39621;DHT22;25309;48.686;9.170;2023-06-22T09:15:04;28.10;99.90
39621;DHT22;25309;48.686;9.170;2023-06-22T09:17:37;28.10;99.90
39621;DHT22;25309;48.686;9.170;2023-06-22T09:20:06;28.00;99.90
39621;DHT22;25309;48.686;9.170;2023-06-22T09:22:35;28.00;99.90
39621;DHT22;25309;48.686;9.170;2023-06-22T09:25:03;28.00;99.90
39621;DHT22;25309;48.686;9.170;2023-06-22T09:27:33;28.00;99.90
39621;DHT22;25309;48.686;9.170;2023-06-22T09:30:00;28.20;99.90
39621;DHT22;25309;48.686;9.170;2023-06-22T09:32:27;28.20;99.90
39621;DHT22;25309;48.686;9.170;2023-06-22T09:34:54;28.40;99.90
39621;DHT22;25309;48.686;9.170;2023-06-22T09:37:21;28.50;99.90
39621;DHT22;25309;48.686;9.170;2023-06-22T09:39:49;28.80;99.90
39621;DHT22;25309;48.686;9.170;2023-06-22T09:42:17;28.90;99.90
39621;DHT22;25309;48.686;9.170;2023-06-22T09:44:44;29.00;99.80
39621;DHT22;25309;48.686;9.170;2023-06-22T09:47:10;29.10;99.60
39621;DHT22;25309;48.686;9.170;2023-06-22T09:49:37;29.40;99.30
39621;DHT22;25309;48.686;9.170;2023-06-22T09:52:15;29.60;98.70
39621;DHT22;25309;48.686;9.170;2023-06-22T09:54:42;29.60;98.30
39621;DHT22;25309;48.686;9.170;2023-06-22T09:57:10;29.70;97.90
39621;DHT22;25309;48.686;9.170;2023-06-22T09:59:38;29.80;97.60
39621;DHT22;25309;48.686;9.170;2023-06-22T10:02:06;30.00;98.20
39621;DHT22;25309;48.686;9.170;2023-06-22T10:04:34;30.50;96.70
39621;DHT22;25309;48.686;9.170;2023-06-22T10:07:02;30.80;95.50
39621;DHT22;25309;48.686;9.170;2023-06-22T10:09:29;30.80;95.50
39621;DHT22;25309;48.686;9.170;2023-06-22T10:11:56;30.90;95.70
39621;DHT22;25309;48.686;9.170;2023-06-22T10:14:24;30.80;95.40
39621;DHT22;25309;48.686;9.170;2023-06-22T10:16:52;30.70;96.00
39621;DHT22;25309;48.686;9.170;2023-06-22T10:19:19;30.60;95.60
39621;DHT22;25309;48.686;9.170;2023-06-22T10:21:46;30.80;95.40
39621;DHT22;25309;48.686;9.170;2023-06-22T10:24:13;30.90;94.70
39621;DHT22;25309;48.686;9.170;2023-06-22T10:26:40;31.10;95.80
39621;DHT22;25309;48.686;9.170;2023-06-22T10:29:07;31.50;95.30
39621;DHT22;25309;48.686;9.170;2023-06-22T10:31:44;31.70;94.40
39621;DHT22;25309;48.686;9.170;2023-06-22T10:34:11;31.80;94.50
39621;DHT22;25309;48.686;9.170;2023-06-22T10:36:38;32.00;94.70
39621;DHT22;25309;48.686;9.170;2023-06-22T10:39:05;32.10;93.00
39621;DHT22;25309;48.686;9.170;2023-06-22T10:41:32;32.20;93.10
39621;DHT22;25309;48.686;9.170;2023-06-22T10:43:59;32.30;93.80
39621;DHT22;25309;48.686;9.170;2023-06-22T10:46:26;32.30;93.80
39621;DHT22;25309;48.686;9.170;2023-06-22T10:48:55;32.20;93.50
39621;DHT22;25309;48.686;9.170;2023-06-22T10:51:25;32.20;93.70
39621;DHT22;25309;48.686;9.170;2023-06-22T10:53:52;32.20;93.50
39621;DHT22;25309;48.686;9.170;2023-06-22T10:56:19;32.10;93.30
39621;DHT22;25309;48.686;9.170;2023-06-22T10:58:46;32.00;93.40
39621;DHT22;25309;48.686;9.170;2023-06-22T11:01:13;32.00;93.00
39621;DHT22;25309;48.686;9.170;2023-06-22T11:04:02;31.80;93.00
39621;DHT22;25309;48.686;9.170;2023-06-22T11:06:37;31.90;93.00
39621;DHT22;25309;48.686;9.170;2023-06-22T11:09:04;31.80;93.10
39621;DHT22;25309;48.686;9.170;2023-06-22T11:11:52;31.90;93.60
39621;DHT22;25309;48.686;9.170;2023-06-22T11:14:22;31.90;93.00
39621;DHT22;25309;48.686;9.170;2023-06-22T11:16:49;32.00;93.70
39621;DHT22;25309;48.686;9.170;2023-06-22T11:19:17;32.10;92.50
39621;DHT22;25309;48.686;9.170;2023-06-22T11:21:45;32.20;93.50
39621;DHT22;25309;48.686;9.170;2023-06-22T11:24:12;32.10;93.60
39621;DHT22;25309;48.686;9.170;2023-06-22T11:26:39;32.20;93.70
39621;DHT22;25309;48.686;9.170;2023-06-22T11:29:06;32.00;92.20
39621;DHT22;25309;48.686;9.170;2023-06-22T11:31:34;32.00;92.50
39621;DHT22;25309;48.686;9.170;2023-06-22T11:34:01;31.90;92.60
39621;DHT22;25309;48.686;9.170;2023-06-22T11:36:29;31.90;92.90
39621;DHT22;25309;48.686;9.170;2023-06-22T11:38:57;32.10;92.90
39621;DHT22;25309;48.686;9.170;2023-06-22T11:41:24;32.40;93.10
39621;DHT22;25309;48.686;9.170;2023-06-22T11:43:51;32.80;92.30
39621;DHT22;25309;48.686;9.170;2023-06-22T11:46:18;33.00;91.70
39621;DHT22;25309;48.686;9.170;2023-06-22T11:48:45;33.20;92.00
39621;DHT22;25309;48.686;9.170;2023-06-22T11:51:12;33.10;90.70
39621;DHT22;25309;48.686;9.170;2023-06-22T11:53:39;32.70;90.40
39621;DHT22;25309;48.686;9.170;2023-06-22T11:56:07;32.60;91.50
39621;DHT22;25309;48.686;9.170;2023-06-22T11:58:36;32.50;90.70
39621;DHT22;25309;48.686;9.170;2023-06-22T12:01:03;32.40;91.40
39621;DHT22;25309;48.686;9.170;2023-06-22T12:03:30;32.30;92.30
39621;DHT22;25309;48.686;9.170;2023-06-22T12:05:57;32.30;92.40
39621;DHT22;25309;48.686;9.170;2023-06-22T12:08:24;32.20;92.10
39621;DHT22;25309;48.686;9.170;2023-06-22T12:10:51;32.30;91.10
39621;DHT22;25309;48.686;9.170;2023-06-22T12:13:22;32.30;91.20
39621;DHT22;25309;48.686;9.170;2023-06-22T12:15:48;32.20;91.40
39621;DHT22;25309;48.686;9.170;2023-06-22T12:18:15;32.00;91.00
39621;DHT22;25309;48.686;9.170;2023-06-22T12:20:42;32.10;91.60
39621;DHT22;25309;48.686;9.170;2023-06-22T12:23:09;32.00;91.80
39621;DHT22;25309;48.686;9.170;2023-06-22T12:25:36;31.80;91.80
39621;DHT22;25309;48.686;9.170;2023-06-22T12:28:04;31.70;91.90
39621;DHT22;25309;48.686;9.170;2023-06-22T12:30:33;31.50;92.00
39621;DHT22;25309;48.686;9.170;2023-06-22T12:33:00;31.30;91.40
39621;DHT22;25309;48.686;9.170;2023-06-22T12:35:27;31.30;92.00
39621;DHT22;25309;48.686;9.170;2023-06-22T12:37:54;31.20;92.10
39621;DHT22;25309;48.686;9.170;2023-06-22T12:40:21;31.00;92.20
39621;DHT22;25309;48.686;9.170;2023-06-22T12:42:48;30.90;92.60
39621;DHT22;25309;48.686;9.170;2023-06-22T12:45:16;30.60;93.30
39621;DHT22;25309;48.686;9.170;2023-06-22T12:47:44;30.50;93.40
39621;DHT22;25309;48.686;9.170;2023-06-22T12:50:11;30.40;93.70
39621;DHT22;25309;48.686;9.170;2023-06-22T12:52:39;30.30;93.80
39621;DHT22;25309;48.686;9.170;2023-06-22T12:55:08;30.40;93.90
39621;DHT22;25309;48.686;9.170;2023-06-22T12:57:35;30.40;93.80
39621;DHT22;25309;48.686;9.170;2023-06-22T13:00:02;30.40;94.00
39621;DHT22;25309;48.686;9.170;2023-06-22T13:02:31;30.40;94.30
39621;DHT22;25309;48.686;9.170;2023-06-22T13:04:59;30.40;94.10
39621;DHT22;25309;48.686;9.170;2023-06-22T13:07:26;30.30;93.60
39621;DHT22;25309;48.686;9.170;2023-06-22T13:09:53;30.30;93.10
39621;DHT22;25309;48.686;9.170;2023-06-22T13:12:21;30.40;93.70
39621;DHT22;25309;48.686;9.170;2023-06-22T13:14:48;30.40;93.60
39621;DHT22;25309;48.686;9.170;2023-06-22T13:17:15;30.40;93.00
39621;DHT22;25309;48.686;9.170;2023-06-22T13:19:42;30.50;93.40
39621;DHT22;25309;48.686;9.170;2023-06-22T13:22:28;30.60;93.70
39621;DHT22;25309;48.686;9.170;2023-06-22T13:24:56;30.80;92.90
39621;DHT22;25309;48.686;9.170;2023-06-22T13:27:23;30.90;92.10
39621;DHT22;25309;48.686;9.170;2023-06-22T13:29:51;30.90;92.50
39621;DHT22;25309;48.686;9.170;2023-06-22T13:32:18;30.90;92.60
39621;DHT22;25309;48.686;9.170;2023-06-22T13:34:45;30.80;92.00
39621;DHT22;25309;48.686;9.170;2023-06-22T13:37:12;30.80;92.50
39621;DHT22;25309;48.686;9.170;2023-06-22T13:39:40;30.90;92.40
39621;DHT22;25309;48.686;9.170;2023-06-22T13:42:08;30.90;92.50
39621;DHT22;25309;48.686;9.170;2023-06-22T13:44:34;31.00;92.00
39621;DHT22;25309;48.686;9.170;2023-06-22T13:47:01;31.00;92.20
39621;DHT22;25309;48.686;9.170;2023-06-22T13:49:28;31.00;92.00
39621;DHT22;25309;48.686;9.170;2023-06-22T13:51:55;31.00;92.20
39621;DHT22;25309;48.686;9.170;2023-06-22T13:54:22;31.00;92.10
39621;DHT22;25309;48.686;9.170;2023-06-22T13:56:57;31.00;92.10
39621;DHT22;25309;48.686;9.170;2023-06-22T13:59:24;31.00;91.90
39621;DHT22;25309;48.686;9.170;2023-06-22T14:01:53;31.00;92.10
39621;DHT22;25309;48.686;9.170;2023-06-22T14:04:21;31.30;92.30
39621;DHT22;25309;48.686;9.170;2023-06-22T14:06:48;31.40;92.30
39621;DHT22;25309;48.686;9.170;2023-06-22T14:09:15;31.50;91.60
39621;DHT22;25309;48.686;9.170;2023-06-22T14:11:42;31.60;91.70
39621;DHT22;25309;48.686;9.170;2023-06-22T14:14:10;31.70;91.60
39621;DHT22;25309;48.686;9.170;2023-06-22T14:16:38;31.90;91.30
39621;DHT22;25309;48.686;9.170;2023-06-22T14:19:04;32.00;91.10
39621;DHT22;25309;48.686;9.170;2023-06-22T14:21:31;32.00;90.80
39621;DHT22;25309;48.686;9.170;2023-06-22T14:23:58;31.80;90.80
39621;DHT22;25309;48.686;9.170;2023-06-22T14:26:25;31.70;91.70
39621;DHT22;25309;48.686;9.170;2023-06-22T14:28:53;31.80;91.20
39621;DHT22;25309;48.686;9.170;2023-06-22T14:31:21;31.80;91.20
39621;DHT22;25309;48.686;9.170;2023-06-22T14:33:49;31.90;91.10
39621;DHT22;25309;48.686;9.170;2023-06-22T14:36:17;32.20;90.60
39621;DHT22;25309;48.686;9.170;2023-06-22T14:38:45;32.60;89.80
39621;DHT22;25309;48.686;9.170;2023-06-22T14:41:13;32.90;86.10
39621;DHT22;25309;48.686;9.170;2023-06-22T14:43:45;33.10;84.60
39621;DHT22;25309;48.686;9.170;2023-06-22T14:46:13;33.40;82.40
39621;DHT22;25309;48.686;9.170;2023-06-22T14:48:42;33.60;77.50
39621;DHT22;25309;48.686;9.170;2023-06-22T14:51:09;33.50;76.30
39621;DHT22;25309;48.686;9.170;2023-06-22T14:53:40;33.40;75.30
39621;DHT22;25309;48.686;9.170;2023-06-22T14:56:07;33.20;72.20
39621;DHT22;25309;48.686;9.170;2023-06-22T14:58:34;33.10;72.80
39621;DHT22;25309;48.686;9.170;2023-06-22T15:01:02;32.80;70.50
39621;DHT22;25309;48.686;9.170;2023-06-22T15:03:30;32.50;70.90
39621;DHT22;25309;48.686;9.170;2023-06-22T15:06:00;32.20;70.80
39621;DHT22;25309;48.686;9.170;2023-06-22T15:08:27;32.00;71.40
39621;DHT22;25309;48.686;9.170;2023-06-22T15:10:54;32.00;72.70
39621;DHT22;25309;48.686;9.170;2023-06-22T15:13:22;32.00;72.70
39621;DHT22;25309;48.686;9.170;2023-06-22T15:15:50;32.00;72.10
39621;DHT22;25309;48.686;9.170;2023-06-22T15:18:17;31.90;72.10
39621;DHT22;25309;48.686;9.170;2023-06-22T15:20:44;31.90;72.20
39621;DHT22;25309;48.686;9.170;2023-06-22T15:23:13;31.80;72.20
39621;DHT22;25309;48.686;9.170;2023-06-22T15:25:40;31.70;72.40
39621;DHT22;25309;48.686;9.170;2023-06-22T15:28:07;31.60;72.30
39621;DHT22;25309;48.686;9.170;2023-06-22T15:30:34;31.50;72.30
39621;DHT22;25309;48.686;9.170;2023-06-22T15:33:01;31.30;71.30
39621;DHT22;25309;48.686;9.170;2023-06-22T15:35:29;31.20;71.60